createdAt,value
2018-05-24T00:02:17.459Z,10.57
2018-05-24T00:04:46.103Z,9.83
2018-05-24T00:07:14.384Z,11.40
2018-05-24T00:09:42.016Z,10.23
2018-05-24T00:12:09.529Z,11.10
2018-05-24T00:14:37.280Z,11.70
2018-05-24T00:17:05.577Z,10.60
2018-05-24T00:19:33.864Z,10.40
2018-05-24T00:22:01.782Z,10.67
2018-05-24T00:24:29.305Z,10.97
2018-05-24T00:26:56.867Z,11.53
2018-05-24T00:29:24.755Z,12.30
2018-05-24T00:31:52.353Z,10.67
2018-05-24T00:34:19.908Z,11.67
2018-05-24T00:36:47.428Z,11.03
2018-05-24T00:39:14.934Z,11.10
2018-05-24T00:41:43.962Z,11.87
2018-05-24T00:44:12.610Z,11.80
2018-05-24T00:46:41.270Z,11.70
2018-05-24T00:49:08.770Z,10.80
2018-05-24T00:51:37.058Z,11.10
2018-05-24T00:54:05.322Z,10.27
2018-05-24T00:56:33.596Z,11.10
2018-05-24T00:59:01.113Z,11.03
2018-05-24T01:01:29.383Z,11.67
2018-05-24T01:03:56.901Z,11.33
2018-05-24T01:06:25.170Z,10.10
2018-05-24T01:08:53.450Z,9.93
2018-05-24T01:11:21.708Z,11.00
2018-05-24T01:13:49.621Z,10.17
2018-05-24T01:16:17.186Z,10.40
2018-05-24T01:18:45.855Z,10.93
2018-05-24T01:21:14.523Z,10.63
2018-05-24T01:23:42.037Z,11.03
2018-05-24T01:26:10.336Z,13.67
2018-05-24T01:28:38.247Z,11.70
2018-05-24T01:31:05.775Z,11.50
2018-05-24T01:33:34.061Z,12.63
2018-05-24T01:36:02.003Z,12.10
2018-05-24T01:38:29.505Z,12.47
2018-05-24T01:40:57.891Z,12.10
2018-05-24T01:43:25.399Z,13.33
2018-05-24T01:45:53.032Z,13.50
2018-05-24T01:48:20.545Z,10.33
2018-05-24T01:50:48.809Z,10.90
2018-05-24T01:53:16.317Z,12.90
2018-05-24T01:55:43.821Z,12.33
2018-05-24T01:58:11.365Z,13.50
2018-05-24T02:00:38.882Z,10.63
2018-05-24T02:03:06.783Z,12.70
2018-05-24T02:05:35.445Z,13.43
2018-05-24T02:08:02.958Z,13.20
2018-05-24T02:10:30.473Z,14.60
2018-05-24T02:12:57.982Z,13.80
2018-05-24T02:15:25.506Z,12.83
2018-05-24T02:17:53.404Z,14.33
2018-05-24T02:20:21.678Z,12.63
2018-05-24T02:22:49.216Z,11.80
2018-05-24T02:25:16.780Z,12.50
2018-05-24T02:27:45.649Z,12.13
2018-05-24T02:30:13.166Z,16.37
2018-05-24T02:32:41.460Z,14.43
2018-05-24T02:35:09.384Z,15.30
2018-05-24T02:37:36.925Z,14.50
2018-05-24T02:40:04.826Z,15.77
2018-05-24T02:42:33.131Z,15.80
2018-05-24T02:45:00.644Z,16.30
2018-05-24T02:47:28.150Z,14.50
2018-05-24T02:49:55.679Z,13.70
2018-05-24T02:52:23.206Z,14.30
2018-05-24T02:54:52.241Z,13.83
2018-05-24T02:57:20.128Z,15.27
2018-05-24T02:59:48.103Z,12.80
2018-05-24T03:02:16.378Z,12.90
2018-05-24T03:04:44.701Z,13.00
2018-05-24T03:07:12.219Z,13.57
2018-05-24T03:09:39.747Z,13.90
2018-05-24T03:12:07.268Z,12.67
2018-05-24T03:14:34.807Z,13.90
2018-05-24T03:17:04.157Z,12.20
2018-05-24T03:19:31.667Z,14.30
2018-05-24T03:21:59.224Z,13.30
2018-05-24T03:24:27.872Z,14.20
2018-05-24T03:26:55.391Z,13.57
2018-05-24T03:29:22.909Z,14.13
2018-05-24T03:31:51.195Z,14.23
2018-05-24T03:34:19.104Z,15.23
2018-05-24T03:36:46.616Z,13.57
2018-05-24T03:39:14.899Z,14.87
2018-05-24T03:41:42.476Z,14.57
2018-05-24T03:44:11.517Z,13.10
2018-05-24T03:46:40.373Z,15.80
2018-05-24T03:49:08.300Z,14.20
2018-05-24T03:51:37.179Z,15.70
2018-05-24T03:54:06.035Z,17.30
2018-05-24T03:56:33.945Z,16.27
2018-05-24T03:59:14.139Z,17.00
2018-05-24T04:01:53.503Z,15.10
2018-05-24T04:04:33.261Z,18.57
2018-05-24T04:07:02.273Z,17.43
2018-05-24T04:09:30.539Z,16.53
2018-05-24T04:11:58.072Z,16.20
2018-05-24T04:14:25.572Z,17.70
2018-05-24T04:16:53.914Z,16.97
2018-05-24T04:19:22.251Z,16.67
2018-05-24T04:21:49.772Z,17.23
2018-05-24T04:24:17.273Z,15.83
2018-05-24T04:26:44.802Z,17.40
2018-05-24T04:29:12.723Z,17.30
2018-05-24T04:31:40.619Z,16.20
2018-05-24T04:34:08.157Z,17.10
2018-05-24T04:36:35.673Z,17.30
2018-05-24T04:39:03.596Z,17.20
2018-05-24T04:41:32.498Z,16.23
2018-05-24T04:44:00.032Z,17.20
2018-05-24T04:46:28.385Z,16.80
2018-05-24T04:48:55.932Z,16.23
2018-05-24T04:51:23.445Z,16.17
2018-05-24T04:53:50.953Z,16.60
2018-05-24T04:56:18.882Z,16.93
2018-05-24T04:58:46.401Z,17.00
2018-05-24T05:01:13.927Z,14.47
2018-05-24T05:03:42.211Z,17.60
2018-05-24T05:06:09.734Z,15.10
2018-05-24T05:08:37.253Z,16.23
2018-05-24T05:11:05.529Z,15.20
2018-05-24T05:13:33.557Z,16.00
2018-05-24T05:16:01.742Z,16.73
2018-05-24T05:18:30.011Z,16.53
2018-05-24T05:20:58.279Z,17.87
2018-05-24T05:23:26.369Z,17.90
2018-05-24T05:25:53.883Z,16.97
2018-05-24T05:28:21.825Z,18.20
2018-05-24T05:30:49.733Z,18.03
2018-05-24T05:33:17.245Z,17.17
2018-05-24T05:35:45.151Z,18.40
2018-05-24T05:38:14.047Z,18.13
2018-05-24T05:40:41.542Z,17.27
2018-05-24T05:43:09.828Z,16.63
2018-05-24T05:45:37.738Z,19.30
2018-05-24T05:48:05.274Z,18.77
2018-05-24T05:50:32.792Z,20.17
2018-05-24T05:53:01.077Z,19.17
2018-05-24T05:55:29.047Z,20.17
2018-05-24T05:57:57.342Z,20.50
2018-05-24T06:00:25.606Z,21.93
2018-05-24T06:02:53.874Z,21.37
2018-05-24T06:05:22.172Z,20.23
2018-05-24T06:07:49.676Z,22.23
2018-05-24T06:10:18.474Z,19.53
2018-05-24T06:12:46.011Z,20.80
2018-05-24T06:15:13.610Z,21.33
2018-05-24T06:17:41.068Z,21.50
2018-05-24T06:20:09.360Z,21.47
2018-05-24T06:22:37.645Z,21.40
2018-05-24T06:25:05.146Z,23.97
2018-05-24T06:27:32.686Z,24.20
2018-05-24T06:30:00.596Z,23.63
2018-05-24T06:32:29.610Z,21.37
2018-05-24T06:34:57.898Z,23.80
2018-05-24T06:37:25.420Z,21.90
2018-05-24T06:39:52.928Z,23.27
2018-05-24T06:42:21.628Z,24.70
2018-05-24T06:44:49.151Z,25.00
2018-05-24T06:47:17.454Z,24.73
2018-05-24T06:49:45.166Z,19.50
2018-05-24T06:52:12.686Z,22.60
2018-05-24T06:54:40.240Z,23.00
2018-05-24T06:57:07.752Z,20.00
2018-05-24T06:59:35.264Z,22.87
2018-05-24T07:02:03.547Z,22.93
2018-05-24T07:04:31.071Z,22.43
2018-05-24T07:06:59.367Z,21.40
2018-05-24T07:09:26.899Z,25.43
2018-05-24T07:11:54.798Z,23.33
2018-05-24T07:14:22.322Z,23.90
2018-05-24T07:16:49.875Z,21.83
2018-05-24T07:19:17.383Z,22.20
2018-05-24T07:21:44.914Z,24.27
2018-05-24T07:24:13.191Z,23.10
2018-05-24T07:26:41.120Z,22.53
2018-05-24T07:29:08.625Z,20.77
2018-05-24T07:31:36.905Z,23.53
2018-05-24T07:34:04.422Z,21.37
2018-05-24T07:36:31.938Z,23.30
2018-05-24T07:38:59.463Z,21.13
2018-05-24T07:41:27.743Z,23.10
2018-05-24T07:43:56.008Z,19.97
2018-05-24T07:46:24.365Z,22.10
2018-05-24T07:48:51.877Z,19.70
2018-05-24T07:51:19.773Z,20.03
2018-05-24T07:53:47.283Z,19.60
2018-05-24T07:56:15.564Z,19.50
2018-05-24T07:58:43.118Z,19.07
2018-05-24T08:01:11.394Z,17.87
2018-05-24T08:03:39.694Z,16.60
2018-05-24T08:06:08.211Z,16.00
2018-05-24T08:08:36.218Z,15.90
2018-05-24T08:11:03.676Z,15.60
2018-05-24T08:13:31.957Z,16.20
2018-05-24T08:16:00.229Z,14.80
2018-05-24T08:18:28.126Z,13.70
2018-05-24T08:20:55.645Z,13.13
2018-05-24T08:23:23.190Z,13.30
2018-05-24T08:25:50.727Z,14.00
2018-05-24T08:28:18.617Z,13.30
2018-05-24T08:30:46.138Z,14.00
2018-05-24T08:33:13.652Z,13.97
2018-05-24T08:35:41.185Z,15.43
2018-05-24T08:38:09.461Z,12.83
2018-05-24T08:40:37.091Z,14.60
2018-05-24T08:43:05.317Z,14.33
2018-05-24T08:45:32.823Z,15.00
2018-05-24T08:48:00.339Z,13.87
2018-05-24T08:50:27.857Z,14.00
2018-05-24T08:52:55.367Z,13.00
2018-05-24T08:55:23.646Z,13.10
2018-05-24T08:57:51.944Z,11.80
2018-05-24T09:00:19.457Z,12.90
2018-05-24T09:02:46.966Z,12.40
2018-05-24T09:05:14.875Z,13.47
2018-05-24T09:07:42.660Z,13.70
2018-05-24T09:10:10.198Z,14.23
2018-05-24T09:12:37.721Z,13.93
2018-05-24T09:15:05.240Z,13.20
2018-05-24T09:17:33.509Z,13.80
2018-05-24T09:20:01.794Z,13.90
2018-05-24T09:22:29.302Z,14.27
2018-05-24T09:24:56.837Z,14.60
2018-05-24T09:27:24.734Z,13.97
2018-05-24T09:29:53.381Z,14.50
2018-05-24T09:32:21.663Z,14.90
2018-05-24T09:34:49.584Z,13.27
2018-05-24T09:37:17.121Z,13.90
2018-05-24T09:39:44.627Z,12.37
2018-05-24T09:42:12.244Z,12.20
2018-05-24T09:44:39.700Z,12.37
2018-05-24T09:47:07.227Z,11.97
2018-05-24T09:49:35.506Z,12.03
2018-05-24T09:52:03.022Z,11.63
2018-05-24T09:54:30.557Z,13.23
2018-05-24T09:56:58.068Z,12.23
2018-05-24T09:59:26.366Z,11.70
2018-05-24T10:01:53.877Z,14.27
2018-05-24T10:04:22.902Z,13.00
2018-05-24T10:06:51.187Z,12.80
2018-05-24T10:09:19.468Z,12.33
2018-05-24T10:11:47.008Z,12.77
2018-05-24T10:14:15.399Z,12.53
2018-05-24T10:16:43.690Z,12.13
2018-05-24T10:19:11.203Z,11.80
2018-05-24T10:21:40.090Z,12.30
2018-05-24T10:24:07.606Z,12.37
2018-05-24T10:26:35.112Z,12.13
2018-05-24T10:29:02.642Z,11.80
2018-05-24T10:31:30.147Z,12.50
2018-05-24T10:33:58.062Z,11.27
2018-05-24T10:36:27.294Z,10.70
2018-05-24T10:38:56.314Z,11.83
2018-05-24T10:41:24.607Z,12.53
2018-05-24T10:43:52.127Z,12.00
2018-05-24T10:46:19.644Z,9.77
2018-05-24T10:48:47.179Z,10.60
2018-05-24T10:51:15.517Z,11.03
2018-05-24T10:53:42.978Z,12.33
2018-05-24T10:56:11.334Z,11.03
2018-05-24T10:58:39.250Z,9.93
2018-05-24T11:01:07.538Z,10.20
2018-05-24T11:03:35.813Z,11.63
2018-05-24T11:06:04.094Z,10.80
2018-05-24T11:08:31.616Z,12.10
2018-05-24T11:10:59.912Z,9.87
2018-05-24T11:13:28.192Z,11.87
2018-05-24T11:15:57.314Z,9.70
2018-05-24T11:18:25.215Z,9.80
2018-05-24T11:20:53.146Z,9.43
2018-05-24T11:23:20.716Z,9.60
2018-05-24T11:25:48.257Z,10.00
2018-05-24T11:28:16.540Z,10.40
2018-05-24T11:30:44.048Z,10.60
2018-05-24T11:33:11.562Z,9.60
2018-05-24T11:35:39.073Z,9.57
2018-05-24T11:38:06.605Z,10.27
2018-05-24T11:40:34.113Z,8.47
2018-05-24T11:43:02.443Z,9.60
2018-05-24T11:45:29.960Z,9.10
2018-05-24T11:47:58.236Z,9.97
2018-05-24T11:50:26.515Z,11.43
2018-05-24T11:52:54.804Z,11.30
2018-05-24T11:55:22.737Z,12.33
2018-05-24T11:57:50.648Z,11.77
2018-05-24T12:00:18.175Z,12.20
2018-05-24T12:02:46.448Z,10.17
2018-05-24T12:05:14.724Z,10.80
2018-05-24T12:07:42.238Z,10.40
2018-05-24T12:10:09.763Z,12.20
2018-05-24T12:12:37.690Z,12.53
2018-05-24T12:15:05.192Z,11.10
2018-05-24T12:17:33.477Z,10.17
2018-05-24T12:20:01.007Z,10.50
2018-05-24T12:22:28.530Z,11.37
2018-05-24T12:24:56.074Z,12.47
2018-05-24T12:27:23.582Z,11.77
2018-05-24T12:29:51.502Z,12.03
2018-05-24T12:32:19.016Z,12.97
2018-05-24T12:34:46.955Z,12.40
2018-05-24T12:37:15.244Z,12.30
2018-05-24T12:39:42.748Z,13.80
2018-05-24T12:42:10.248Z,14.23
2018-05-24T12:44:37.782Z,14.00
2018-05-24T12:47:06.069Z,15.37
2018-05-24T12:49:33.994Z,15.40
2018-05-24T12:52:02.284Z,14.37
2018-05-24T12:54:29.797Z,15.23
2018-05-24T12:56:57.327Z,17.43
2018-05-24T12:59:24.824Z,15.27
2018-05-24T13:01:53.114Z,15.50
2018-05-24T13:04:21.018Z,16.83
2018-05-24T13:06:48.923Z,17.10
2018-05-24T13:09:17.533Z,17.80
2018-05-24T13:11:45.815Z,16.37
2018-05-24T13:14:14.090Z,16.10
2018-05-24T13:16:42.371Z,17.07
2018-05-24T13:19:10.659Z,16.70
2018-05-24T13:21:38.566Z,15.30
2018-05-24T13:24:06.590Z,17.67
2018-05-24T13:26:34.996Z,16.80
2018-05-24T13:29:02.543Z,18.43
2018-05-24T13:31:30.819Z,16.70
2018-05-24T13:33:59.851Z,17.17
2018-05-24T13:36:27.375Z,15.60
2018-05-24T13:38:54.911Z,16.27
2018-05-24T13:41:23.212Z,18.60
2018-05-24T13:43:50.731Z,15.83
2018-05-24T13:46:19.021Z,17.63
2018-05-24T13:48:47.300Z,17.47
2018-05-24T13:51:15.570Z,15.17
2018-05-24T13:53:43.096Z,14.80
2018-05-24T13:56:11.006Z,14.43
2018-05-24T13:58:39.286Z,13.50
2018-05-24T14:01:07.584Z,17.33
2018-05-24T14:03:35.099Z,15.30
2018-05-24T14:06:02.624Z,17.50
2018-05-24T14:08:30.130Z,14.70
2018-05-24T14:10:58.057Z,15.07
2018-05-24T14:13:25.563Z,14.00
2018-05-24T14:15:53.509Z,13.80
2018-05-24T14:18:21.779Z,13.40
2018-05-24T14:20:49.295Z,14.77
2018-05-24T14:23:16.835Z,13.33
2018-05-24T14:25:44.778Z,12.37
2018-05-24T14:28:12.304Z,10.80
2018-05-24T14:30:39.828Z,8.43
2018-05-24T14:33:07.350Z,10.17
2018-05-24T14:35:34.856Z,8.67
2018-05-24T14:38:02.412Z,13.10
2018-05-24T14:40:29.932Z,10.43
2018-05-24T14:42:57.446Z,9.00
2018-05-24T14:45:25.376Z,5.93
2018-05-24T14:47:57.594Z,3.77
2018-05-24T14:50:25.506Z,3.50
2018-05-24T14:52:53.412Z,4.30
2018-05-24T14:55:20.928Z,4.10
2018-05-24T14:57:48.436Z,4.50
2018-05-24T15:00:16.369Z,3.57
2018-05-24T15:02:44.640Z,3.40
2018-05-24T15:05:12.912Z,2.93
2018-05-24T15:07:40.443Z,3.57
2018-05-24T15:10:07.948Z,3.43
2018-05-24T15:12:35.914Z,4.10
2018-05-24T15:15:04.205Z,3.47
2018-05-24T15:17:31.758Z,3.20
2018-05-24T15:19:59.296Z,4.30
2018-05-24T15:22:26.842Z,4.07
2018-05-24T15:24:54.352Z,4.30
2018-05-24T15:27:22.277Z,3.93
2018-05-24T15:29:49.828Z,3.63
2018-05-24T15:32:17.326Z,4.07
2018-05-24T15:34:44.900Z,3.90
2018-05-24T15:37:12.406Z,4.20
2018-05-24T15:39:39.938Z,3.67
2018-05-24T15:42:09.548Z,4.50
2018-05-24T15:44:37.090Z,4.57
2018-05-24T15:47:04.600Z,5.23
2018-05-24T15:49:32.115Z,4.63
2018-05-24T15:51:59.615Z,3.33
2018-05-24T15:54:27.188Z,3.20
2018-05-24T15:56:55.461Z,3.43
2018-05-24T15:59:23.744Z,2.73
2018-05-24T16:01:52.034Z,6.00
2018-05-24T16:04:19.940Z,3.13
2018-05-24T16:06:47.454Z,2.87
2018-05-24T16:09:15.036Z,2.87
2018-05-24T16:11:42.562Z,3.00
2018-05-24T16:14:11.128Z,2.40
2018-05-24T16:16:39.069Z,2.50
2018-05-24T16:19:06.594Z,2.53
2018-05-24T16:21:34.892Z,2.90
2018-05-24T16:24:02.413Z,3.50
2018-05-24T16:26:30.689Z,2.60
2018-05-24T16:28:58.969Z,2.40
2018-05-24T16:31:27.252Z,3.60
2018-05-24T16:33:56.149Z,2.50
2018-05-24T16:36:23.651Z,2.70
2018-05-24T16:38:51.171Z,2.90
2018-05-24T16:41:18.709Z,2.73
2018-05-24T16:43:46.641Z,3.40
2018-05-24T16:46:14.151Z,2.23
2018-05-24T16:48:42.094Z,2.60
2018-05-24T16:51:09.585Z,2.40
2018-05-24T16:53:37.144Z,2.57
2018-05-24T16:56:05.444Z,2.50
2018-05-24T16:58:33.352Z,2.40
2018-05-24T17:01:00.874Z,3.00
2018-05-24T17:03:28.386Z,2.70
2018-05-24T17:05:56.670Z,2.80
2018-05-24T17:08:24.962Z,10.43
2018-05-24T17:10:52.490Z,3.13
2018-05-24T17:13:20.765Z,2.50
2018-05-24T17:15:49.855Z,3.37
2018-05-24T17:18:17.373Z,3.50
2018-05-24T17:20:46.274Z,2.77
2018-05-24T17:23:13.788Z,2.90
2018-05-24T17:25:42.068Z,2.97
2018-05-24T17:28:10.360Z,2.23
2018-05-24T17:30:37.866Z,2.70
2018-05-24T17:33:05.400Z,2.60
2018-05-24T17:35:33.545Z,2.60
2018-05-24T17:38:01.473Z,2.70
2018-05-24T17:40:28.990Z,2.93
2018-05-24T17:42:56.542Z,2.90
2018-05-24T17:45:24.080Z,3.10
2018-05-24T17:47:52.409Z,2.50
2018-05-24T17:50:19.954Z,2.87
2018-05-24T17:52:47.545Z,2.80
2018-05-24T17:55:15.049Z,3.20
2018-05-24T17:57:42.558Z,2.40
2018-05-24T18:00:10.465Z,3.50
2018-05-24T18:02:38.729Z,3.17
2018-05-24T18:05:06.293Z,2.97
2018-05-24T18:07:34.761Z,2.80
2018-05-24T18:10:02.706Z,4.30
2018-05-24T18:12:30.253Z,3.00
2018-05-24T18:14:59.032Z,3.57
2018-05-24T18:17:26.917Z,3.30
2018-05-24T18:19:54.456Z,3.50
2018-05-24T18:22:22.856Z,3.23
2018-05-24T18:24:51.888Z,3.27
2018-05-24T18:27:20.685Z,3.17
2018-05-24T18:29:49.004Z,3.20
2018-05-24T18:32:18.122Z,3.80
2018-05-24T18:34:46.415Z,3.90
2018-05-24T18:37:14.697Z,3.77
2018-05-24T18:39:43.374Z,5.30
2018-05-24T18:42:11.217Z,3.73
2018-05-24T18:44:39.163Z,4.20
2018-05-24T18:47:07.407Z,3.97
2018-05-24T18:49:35.685Z,4.30
2018-05-24T18:52:04.765Z,4.10
2018-05-24T18:54:34.119Z,4.43
2018-05-24T18:57:03.004Z,3.70
2018-05-24T18:59:31.863Z,3.57
2018-05-24T19:02:00.960Z,3.93
2018-05-24T19:04:28.482Z,4.03
2018-05-24T19:06:56.402Z,5.27
2018-05-24T19:09:24.706Z,4.50
2018-05-24T19:11:54.022Z,4.87
2018-05-24T19:14:23.130Z,4.47
2018-05-24T19:16:51.219Z,4.80
2018-05-24T19:19:21.155Z,4.87
2018-05-24T19:21:50.846Z,6.77
2018-05-24T19:24:18.392Z,5.77
2018-05-24T19:26:46.625Z,5.03
2018-05-24T19:29:16.211Z,5.13
2018-05-24T19:31:44.191Z,4.80
2018-05-24T19:34:13.225Z,5.33
2018-05-24T19:36:41.357Z,5.50
2018-05-24T19:39:08.881Z,5.83
2018-05-24T19:41:37.957Z,5.20
2018-05-24T19:44:05.487Z,5.37
2018-05-24T19:46:33.025Z,6.47
2018-05-24T19:49:00.573Z,7.07
2018-05-24T19:51:28.924Z,6.70
2018-05-24T19:53:58.251Z,8.87
2018-05-24T19:56:33.328Z,10.50
2018-05-24T19:59:00.863Z,9.20
2018-05-24T20:01:28.447Z,8.97
2018-05-24T20:03:57.757Z,6.40
2018-05-24T20:06:27.095Z,5.90
2018-05-24T20:08:55.035Z,5.60
2018-05-24T20:11:22.973Z,5.67
2018-05-24T20:13:50.874Z,5.77
2018-05-24T20:16:18.419Z,6.00
2018-05-24T20:18:45.983Z,6.20
2018-05-24T20:21:13.501Z,6.30
2018-05-24T20:23:42.023Z,6.10
2018-05-24T20:26:09.554Z,6.30
2018-05-24T20:28:37.486Z,6.00
2018-05-24T20:31:06.542Z,5.97
2018-05-24T20:33:34.067Z,7.10
2018-05-24T20:36:02.953Z,6.97
2018-05-24T20:38:31.298Z,7.77
2018-05-24T20:41:00.336Z,6.70
2018-05-24T20:43:29.112Z,6.20
2018-05-24T20:45:57.409Z,7.60
2018-05-24T20:48:25.706Z,7.20
2018-05-24T20:50:53.228Z,8.03
2018-05-24T20:53:21.816Z,7.17
2018-05-24T20:55:50.102Z,7.60
2018-05-24T20:58:19.140Z,8.10
2018-05-24T21:00:47.356Z,8.43
2018-05-24T21:03:15.678Z,7.00
2018-05-24T21:05:43.190Z,8.23
2018-05-24T21:08:11.469Z,7.20
2018-05-24T21:10:40.147Z,6.30
2018-05-24T21:13:09.205Z,6.73
2018-05-24T21:15:36.727Z,7.20
2018-05-24T21:18:04.314Z,7.43
2018-05-24T21:20:32.627Z,7.90
2018-05-24T21:23:00.942Z,8.40
2018-05-24T21:25:28.853Z,8.00
2018-05-24T21:27:57.728Z,7.60
2018-05-24T21:30:25.658Z,8.50
2018-05-24T21:32:53.567Z,7.80
2018-05-24T21:35:22.421Z,7.53
2018-05-24T21:37:50.739Z,7.90
2018-05-24T21:40:18.669Z,7.70
2018-05-24T21:42:46.198Z,7.13
2018-05-24T21:45:14.522Z,6.50
2018-05-24T21:47:42.418Z,6.77
2018-05-24T21:50:09.948Z,8.20
2018-05-24T21:52:37.853Z,8.10
2018-05-24T21:55:05.392Z,7.50
2018-05-24T21:57:34.259Z,7.53
2018-05-24T22:00:01.835Z,7.77
2018-05-24T22:02:29.736Z,8.30
2018-05-24T22:04:58.009Z,7.33
2018-05-24T22:07:25.549Z,7.77
2018-05-24T22:09:53.045Z,7.73
2018-05-24T22:12:20.558Z,7.83
2018-05-24T22:14:48.100Z,7.97
2018-05-24T22:17:15.644Z,7.10
2018-05-24T22:19:44.495Z,7.77
2018-05-24T22:22:12.009Z,8.73
2018-05-24T22:24:39.513Z,8.33
2018-05-24T22:27:07.032Z,8.97
2018-05-24T22:29:34.547Z,7.80
2018-05-24T22:32:03.409Z,7.93
2018-05-24T22:34:30.936Z,9.47
2018-05-24T22:36:58.464Z,8.63
2018-05-24T22:39:26.755Z,8.93
2018-05-24T22:41:54.679Z,10.07
2018-05-24T22:44:22.214Z,10.50
2018-05-24T22:46:50.109Z,9.27
2018-05-24T22:49:18.392Z,9.27
2018-05-24T22:51:45.889Z,9.27
2018-05-24T22:54:14.175Z,9.97
2018-05-24T22:56:42.844Z,9.40
2018-05-24T22:59:11.830Z,9.70
2018-05-24T23:01:40.835Z,9.10
2018-05-24T23:04:09.117Z,9.40
2018-05-24T23:06:37.953Z,9.90
2018-05-24T23:09:06.372Z,10.83
2018-05-24T23:11:34.650Z,7.90
2018-05-24T23:14:02.942Z,4.30
2018-05-24T23:16:30.850Z,4.77
2018-05-24T23:18:59.122Z,6.60
2018-05-24T23:21:27.415Z,5.17
2018-05-24T23:23:54.915Z,5.10
2018-05-24T23:26:23.234Z,6.40
2018-05-24T23:28:50.736Z,5.80
2018-05-24T23:31:18.354Z,6.30
2018-05-24T23:33:47.221Z,6.03
2018-05-24T23:36:15.118Z,5.70
2018-05-24T23:38:42.769Z,6.13
2018-05-24T23:41:11.050Z,6.67
2018-05-24T23:43:39.704Z,6.83
2018-05-24T23:46:07.614Z,6.53
2018-05-24T23:48:35.544Z,7.20
2018-05-24T23:51:03.125Z,6.60
2018-05-24T23:53:31.789Z,8.40
2018-05-24T23:56:00.052Z,6.97
2018-05-24T23:58:28.431Z,7.30
